メインページ
METAR-TAF:

METAR-TAF

空港 :

カイロ国際空港

カイロ, エジプト

緯度: 30-08N, 経度: 031-24E, 海抜: 64m

現時点の気象観測

当レポートは24分前の22:00(UTC)に作成
南西の風 6kt
気温 19°C
湿度 49%
気圧 1020 hPa
視程10km以上
高度2500ftの雲は散在している

METAR: HECA 112200Z 22006KT 9999 SCT025 19/08 Q1020 NOSIG

時間: 00:24 (22:24 UTC)

予報

当レポートは5時間24分前の17:00(UTC)に作成
予報は11日の 18時(UTC)から 12日の 24時(UTC)まで有効
南西の風 9kt
視程10km以上
高度2500ftの雲は散在している
確率 30% :
11日の 20時(UTC)から 12日の 08時(UTC)まで一時的に
視程: 4000m
煙霧

TAF: HECA 111700Z 1118/1224 23009KT 9999 SCT025 PROB30 TEMPO 1120/1208 4000 HZ NSC

4,000以上の空港の気象観測と天気予報(METAR報とTAF報)

利用可能な観測所は地図上に黄色い丸と赤い丸で示す。

丸の上にカーソルを重ねると観測所名を参照できる。

次にクリックすると気象観測と天気予報を参照できる。

マップの切り替え:黒色「×」印の緑ボタンをクリックして拡大、「-」印の緑ボタンをクリックして縮小、緑色の三角印をクリックして隣りの地図に切り替え


METAR-TAF: